createdAt,value
2022-12-11T00:01:32.342Z,98512.53
2022-12-11T00:04:35.931Z,98508.50
2022-12-11T00:07:40.241Z,98503.12
2022-12-11T00:10:50.152Z,98507.00
2022-12-11T00:13:53.691Z,98496.84
2022-12-11T00:16:56.680Z,98495.19
2022-12-11T00:19:59.411Z,98491.37
2022-12-11T00:23:04.992Z,98478.38
2022-12-11T00:26:14.302Z,98483.03
2022-12-11T00:29:17.262Z,98480.31
2022-12-11T00:32:20.296Z,98487.44
2022-12-11T00:35:23.323Z,98489.56
2022-12-11T00:38:26.031Z,98489.31
2022-12-11T00:41:28.995Z,98495.53
2022-12-11T00:44:31.841Z,98489.31
2022-12-11T00:47:34.930Z,98481.53
2022-12-11T00:50:38.347Z,98478.31
2022-12-11T00:53:41.289Z,98479.00
2022-12-11T00:56:44.195Z,98497.59
2022-12-11T00:59:47.168Z,98493.44
2022-12-11T01:02:50.487Z,98497.84
2022-12-11T01:05:56.601Z,98498.19
2022-12-11T01:09:17.840Z,98484.87
2022-12-11T01:12:20.989Z,98487.09
2022-12-11T01:15:29.268Z,98500.03
2022-12-11T01:18:34.450Z,98494.06
2022-12-11T01:21:37.202Z,98491.66
2022-12-11T01:24:41.831Z,98484.19
2022-12-11T01:27:44.480Z,98493.34
2022-12-11T01:30:47.620Z,98502.16
2022-12-11T01:33:50.366Z,98495.88
2022-12-11T01:36:53.351Z,98515.53
2022-12-11T01:39:56.089Z,98527.16
2022-12-11T01:42:59.089Z,98529.19
2022-12-11T01:46:02.025Z,98518.00
2022-12-11T01:49:09.425Z,98518.97
2022-12-11T01:52:16.467Z,98510.00
2022-12-11T01:55:20.695Z,98498.81
2022-12-11T01:58:32.431Z,98518.00
2022-12-11T02:01:55.413Z,98502.25
2022-12-11T02:04:58.356Z,98496.50
2022-12-11T02:08:03.645Z,98505.56
2022-12-11T02:11:11.076Z,98512.72
2022-12-11T02:14:53.801Z,98509.09
2022-12-11T02:18:11.460Z,98511.81
2022-12-11T02:21:29.282Z,98516.94
2022-12-11T02:24:51.683Z,98511.66
2022-12-11T02:28:17.585Z,98509.72
2022-12-11T02:31:40.414Z,98515.91
2022-12-11T02:35:09.668Z,98512.88
2022-12-11T02:38:17.995Z,98506.03
2022-12-11T02:41:22.376Z,98518.09
2022-12-11T02:44:30.557Z,98504.44
2022-12-11T02:47:34.989Z,98492.63
2022-12-11T02:50:42.634Z,98492.63
2022-12-11T02:53:46.676Z,98484.78
2022-12-11T02:57:19.176Z,98488.25
2022-12-11T03:00:22.057Z,98483.94
2022-12-11T03:03:25.311Z,98481.38
2022-12-11T03:06:40.255Z,98485.22
2022-12-11T03:09:45.791Z,98485.69
2022-12-11T03:12:53.887Z,98474.56
2022-12-11T03:16:07.457Z,98471.16
2022-12-11T03:19:38.213Z,98466.03
2022-12-11T03:22:51.363Z,98472.31
2022-12-11T03:26:03.683Z,98467.19
2022-12-11T03:29:24.954Z,98469.13
2022-12-11T03:32:42.410Z,98471.97
2022-12-11T03:35:51.211Z,98467.38
2022-12-11T03:38:59.251Z,98466.59
2022-12-11T03:42:06.120Z,98471.34
2022-12-11T03:45:10.195Z,98483.47
2022-12-11T03:48:15.091Z,98465.88
2022-12-11T03:51:18.559Z,98451.88
2022-12-11T03:54:23.243Z,98468.25
2022-12-11T03:57:31.150Z,98489.28
2022-12-11T04:00:34.334Z,98470.97
2022-12-11T04:03:38.093Z,98476.53
2022-12-11T04:06:41.639Z,98484.72
2022-12-11T04:09:44.613Z,98479.50
2022-12-11T04:12:47.237Z,98473.03
2022-12-11T04:15:50.303Z,98490.09
2022-12-11T04:19:11.613Z,98485.44
2022-12-11T04:22:35.410Z,98492.81
2022-12-11T04:25:39.185Z,98488.59
2022-12-11T04:28:43.636Z,98497.13
2022-12-11T04:31:46.338Z,98489.41
2022-12-11T04:34:50.943Z,98492.91
2022-12-11T04:37:53.781Z,98503.47
2022-12-11T04:41:01.518Z,98506.19
2022-12-11T04:44:05.779Z,98515.63
2022-12-11T04:47:08.919Z,98516.06
2022-12-11T04:50:14.654Z,98522.31
2022-12-11T04:53:18.428Z,98530.94
2022-12-11T04:56:23.070Z,98531.47
2022-12-11T04:59:26.186Z,98533.84
2022-12-11T05:02:29.039Z,98537.81
2022-12-11T05:05:32.096Z,98557.81
2022-12-11T05:08:36.673Z,98566.78
2022-12-11T05:11:42.209Z,98562.50
2022-12-11T05:14:44.952Z,98576.56
2022-12-11T05:17:47.933Z,98561.00
2022-12-11T05:20:59.447Z,98564.16
2022-12-11T05:24:03.395Z,98582.91
2022-12-11T05:27:08.426Z,98567.31
2022-12-11T05:30:11.709Z,98568.91
2022-12-11T05:33:14.652Z,98596.19
2022-12-11T05:36:32.458Z,98577.53
2022-12-11T05:39:35.143Z,98578.69
2022-12-11T05:42:39.262Z,98583.78
2022-12-11T05:45:41.921Z,98593.94
2022-12-11T05:48:48.555Z,98581.84
2022-12-11T05:51:51.241Z,98588.12
2022-12-11T05:54:54.273Z,98599.81
2022-12-11T05:57:56.855Z,98588.22
2022-12-11T06:01:00.016Z,98581.94
2022-12-11T06:04:05.544Z,98588.22
2022-12-11T06:07:10.881Z,98602.72
2022-12-11T06:10:14.262Z,98596.91
2022-12-11T06:13:17.822Z,98597.38
2022-12-11T06:16:22.041Z,98597.00
2022-12-11T06:19:24.712Z,98609.97
2022-12-11T06:22:27.679Z,98591.75
2022-12-11T06:25:31.015Z,98607.75
2022-12-11T06:28:34.062Z,98607.75
2022-12-11T06:31:36.820Z,98621.53
2022-12-11T06:34:42.192Z,98631.28
2022-12-11T06:37:44.834Z,98631.72
2022-12-11T06:40:56.186Z,98648.53
2022-12-11T06:43:58.806Z,98661.53
2022-12-11T06:47:01.771Z,98669.72
2022-12-11T06:50:05.114Z,98663.34
2022-12-11T06:53:08.528Z,98649.97
2022-12-11T06:56:15.946Z,98654.66
2022-12-11T06:59:19.187Z,98660.53
2022-12-11T07:02:22.015Z,98654.31
2022-12-11T07:05:25.123Z,98657.03
2022-12-11T07:08:29.893Z,98668.66
2022-12-11T07:11:36.732Z,98656.56
2022-12-11T07:14:39.411Z,98691.75
2022-12-11T07:17:43.391Z,98691.31
2022-12-11T07:20:46.207Z,98694.47
2022-12-11T07:23:50.139Z,98694.03
2022-12-11T07:26:53.165Z,98700.75
2022-12-11T07:29:56.301Z,98704.59
2022-12-11T07:32:59.023Z,98710.06
2022-12-11T07:36:03.850Z,98697.87
2022-12-11T07:39:07.850Z,98724.53
2022-12-11T07:42:10.858Z,98740.56
2022-12-11T07:45:14.344Z,98740.56
2022-12-11T07:48:18.613Z,98748.31
2022-12-11T07:51:30.690Z,98732.12
2022-12-11T07:54:33.700Z,98733.00
2022-12-11T07:57:36.368Z,98745.53
2022-12-11T08:00:39.355Z,98757.66
2022-12-11T08:03:42.733Z,98741.75
2022-12-11T08:06:45.460Z,98754.69
2022-12-11T08:09:48.400Z,98764.59
2022-12-11T08:12:51.194Z,98767.31
2022-12-11T08:15:54.907Z,98786.06
2022-12-11T08:18:58.656Z,98792.78
2022-12-11T08:22:01.728Z,98777.88
2022-12-11T08:25:05.901Z,98792.00
2022-12-11T08:28:08.843Z,98796.31
2022-12-11T08:31:13.543Z,98796.87
2022-12-11T08:34:16.795Z,98797.31
2022-12-11T08:37:20.559Z,98800.47
2022-12-11T08:40:23.769Z,98799.69
2022-12-11T08:43:26.538Z,98801.72
2022-12-11T08:46:32.651Z,98805.69
2022-12-11T08:49:42.648Z,98809.22
2022-12-11T08:52:45.722Z,98821.50
2022-12-11T08:55:48.398Z,98814.53
2022-12-11T08:58:52.422Z,98793.88
2022-12-11T09:01:56.351Z,98820.16
2022-12-11T09:04:59.289Z,98824.50
2022-12-11T09:08:01.959Z,98821.75
2022-12-11T09:11:11.219Z,98833.03
2022-12-11T09:14:13.945Z,98821.75
2022-12-11T09:17:19.634Z,98833.16
2022-12-11T09:20:22.293Z,98842.03
2022-12-11T09:23:25.360Z,98850.25
2022-12-11T09:26:30.374Z,98845.94
2022-12-11T09:29:33.447Z,98844.13
2022-12-11T09:32:36.241Z,98846.62
2022-12-11T09:35:39.990Z,98841.25
2022-12-11T09:38:45.440Z,98851.22
2022-12-11T09:42:10.613Z,98835.16
2022-12-11T09:45:15.662Z,98851.66
2022-12-11T09:48:22.539Z,98856.19
2022-12-11T09:51:32.307Z,98871.44
2022-12-11T09:54:37.070Z,98865.37
2022-12-11T09:57:48.553Z,98851.97
2022-12-11T10:01:09.500Z,98841.63
2022-12-11T10:04:47.588Z,98847.97
2022-12-11T10:08:14.853Z,98849.19
2022-12-11T10:11:42.815Z,98838.31
2022-12-11T10:15:12.764Z,98836.19
2022-12-11T10:18:21.709Z,98837.34
2022-12-11T10:21:26.703Z,98848.78
2022-12-11T10:25:10.716Z,98840.16
2022-12-11T10:28:17.072Z,98847.00
2022-12-11T10:31:39.119Z,98854.47
2022-12-11T10:34:47.997Z,98848.75
2022-12-11T10:37:52.577Z,98849.56
2022-12-11T10:40:59.511Z,98867.59
2022-12-11T10:44:16.328Z,98862.47
2022-12-11T10:47:19.109Z,98855.66
2022-12-11T10:50:26.292Z,98867.31
2022-12-11T10:53:30.629Z,98880.56
2022-12-11T10:56:38.069Z,98880.63
2022-12-11T10:59:43.463Z,98864.78
2022-12-11T11:02:46.569Z,98859.00
2022-12-11T11:05:50.869Z,98861.56
2022-12-11T11:08:58.283Z,98839.66
2022-12-11T11:12:07.410Z,98872.41
2022-12-11T11:15:21.242Z,98865.37
2022-12-11T11:18:27.219Z,98874.22
2022-12-11T11:21:32.020Z,98878.66
2022-12-11T11:24:54.002Z,98875.66
2022-12-11T11:28:02.695Z,98876.84
2022-12-11T11:31:09.102Z,98884.41
2022-12-11T11:34:23.851Z,98859.00
2022-12-11T11:37:33.219Z,98866.16
2022-12-11T11:41:07.659Z,98861.62
2022-12-11T11:44:19.127Z,98850.87
2022-12-11T11:47:31.357Z,98867.22
2022-12-11T11:50:36.607Z,98861.84
2022-12-11T11:53:41.698Z,98854.06
2022-12-11T11:56:45.333Z,98855.03
2022-12-11T11:59:54.847Z,98877.41
2022-12-11T12:03:01.572Z,98882.44
2022-12-11T12:06:41.421Z,98879.00
2022-12-11T12:09:57.704Z,98888.75
2022-12-11T12:14:01.136Z,98893.88
2022-12-11T12:17:10.015Z,98881.00
2022-12-11T12:20:25.420Z,98871.81
2022-12-11T12:23:43.767Z,98868.91
2022-12-11T12:27:50.361Z,98871.28
2022-12-11T12:31:08.858Z,98881.06
2022-12-11T12:34:33.353Z,98883.72
2022-12-11T12:37:47.422Z,98891.31
2022-12-11T12:41:15.873Z,98894.84
2022-12-11T12:44:22.567Z,98896.34
2022-12-11T12:47:30.137Z,98899.06
2022-12-11T12:50:43.966Z,98890.09
2022-12-11T12:53:59.652Z,98892.00
2022-12-11T12:57:04.478Z,98893.25
2022-12-11T13:00:13.141Z,98900.69
2022-12-11T13:03:20.456Z,98901.38
2022-12-11T13:06:44.489Z,98912.56
2022-12-11T13:10:03.867Z,98923.75
2022-12-11T13:13:31.202Z,98910.16
2022-12-11T13:16:41.442Z,98921.09
2022-12-11T13:19:44.544Z,98935.81
2022-12-11T13:23:18.101Z,98931.38
2022-12-11T13:26:33.365Z,98932.88
2022-12-11T13:29:42.280Z,98938.16
2022-12-11T13:32:54.551Z,98937.72
2022-12-11T13:36:24.102Z,98949.22
2022-12-11T13:39:31.725Z,98944.09
2022-12-11T13:42:44.471Z,98954.69
2022-12-11T13:45:51.413Z,98974.16
2022-12-11T13:49:01.349Z,98978.84
2022-12-11T13:52:05.689Z,98968.25
2022-12-11T13:55:24.505Z,98987.84
2022-12-11T13:58:30.610Z,98988.22
2022-12-11T14:01:35.656Z,98983.41
2022-12-11T14:04:39.197Z,99005.28
2022-12-11T14:07:57.379Z,98991.62
2022-12-11T14:11:00.490Z,98985.72
2022-12-11T14:14:07.077Z,98988.22
2022-12-11T14:17:15.436Z,98991.66
2022-12-11T14:20:25.875Z,98987.56
2022-12-11T14:23:38.145Z,98987.78
2022-12-11T14:26:49.938Z,98986.06
2022-12-11T14:29:53.857Z,98992.91
2022-12-11T14:33:05.376Z,98995.44
2022-12-11T14:36:14.874Z,98995.56
2022-12-11T14:39:25.575Z,98992.59
2022-12-11T14:42:37.871Z,98995.91
2022-12-11T14:45:44.928Z,99014.78
2022-12-11T14:48:59.106Z,99013.09
2022-12-11T14:52:04.682Z,99016.81
2022-12-11T14:55:15.676Z,99026.81
2022-12-11T14:58:23.995Z,99026.69
2022-12-11T15:01:33.056Z,99016.34
2022-12-11T15:04:36.746Z,99021.22
2022-12-11T15:07:42.313Z,99030.75
2022-12-11T15:11:00.202Z,99042.81
2022-12-11T15:14:06.237Z,99038.03
2022-12-11T15:17:14.718Z,99041.44
2022-12-11T15:20:30.151Z,99056.66
2022-12-11T15:23:47.162Z,99061.69
2022-12-11T15:26:50.855Z,99061.69
2022-12-11T15:29:54.296Z,99057.34
2022-12-11T15:33:09.937Z,99051.62
2022-12-11T15:36:30.874Z,99060.31
2022-12-11T15:39:33.867Z,99068.47
2022-12-11T15:42:40.837Z,99058.88
2022-12-11T15:45:44.389Z,99062.09
2022-12-11T15:48:51.132Z,99073.22
2022-12-11T15:51:55.119Z,99075.94
2022-12-11T15:54:58.189Z,99075.94
2022-12-11T15:58:22.420Z,99077.41
2022-12-11T16:01:25.912Z,99072.97
2022-12-11T16:04:28.916Z,99080.66
2022-12-11T16:07:32.945Z,99088.84
2022-12-11T16:10:37.595Z,99098.62
2022-12-11T16:13:40.569Z,99094.59
2022-12-11T16:16:43.991Z,99087.19
2022-12-11T16:19:46.951Z,99100.03
2022-12-11T16:22:53.521Z,99098.34
2022-12-11T16:25:56.324Z,99094.16
2022-12-11T16:28:59.502Z,99102.44
2022-12-11T16:32:02.780Z,99102.00
2022-12-11T16:35:06.123Z,99100.53
2022-12-11T16:38:10.271Z,99098.88
2022-12-11T16:41:18.425Z,99105.47
2022-12-11T16:44:23.277Z,99107.38
2022-12-11T16:47:26.669Z,99102.72
2022-12-11T16:50:30.182Z,99107.84
2022-12-11T16:53:33.232Z,99113.31
2022-12-11T16:56:36.411Z,99110.44
2022-12-11T16:59:41.394Z,99111.91
2022-12-11T17:02:44.167Z,99116.91
2022-12-11T17:05:47.285Z,99121.91
2022-12-11T17:08:51.261Z,99115.19
2022-12-11T17:11:54.835Z,99122.56
2022-12-11T17:14:57.882Z,99118.50
2022-12-11T17:18:01.342Z,99102.75
2022-12-11T17:21:09.297Z,99124.84
2022-12-11T17:24:12.635Z,99125.03
2022-12-11T17:27:17.010Z,99122.97
2022-12-11T17:30:22.070Z,99125.25
2022-12-11T17:33:25.990Z,99125.25
2022-12-11T17:36:31.413Z,99124.78
2022-12-11T17:39:42.475Z,99124.31
2022-12-11T17:42:46.615Z,99136.34
2022-12-11T17:45:57.645Z,99130.56
2022-12-11T17:49:05.057Z,99140.03
2022-12-11T17:52:08.673Z,99140.16
2022-12-11T17:55:14.159Z,99152.97
2022-12-11T17:58:20.658Z,99159.09
2022-12-11T18:01:24.363Z,99156.56
2022-12-11T18:04:29.252Z,99162.97
2022-12-11T18:07:36.305Z,99157.03
2022-12-11T18:10:40.958Z,99153.03
2022-12-11T18:13:45.757Z,99160.56
2022-12-11T18:16:49.839Z,99158.22
2022-12-11T18:19:53.707Z,99155.06
2022-12-11T18:22:59.778Z,99164.69
2022-12-11T18:26:03.739Z,99170.00
2022-12-11T18:29:09.030Z,99169.06
2022-12-11T18:32:14.538Z,99178.84
2022-12-11T18:35:19.923Z,99161.22
2022-12-11T18:38:25.597Z,99166.41
2022-12-11T18:41:29.783Z,99158.88
2022-12-11T18:44:34.639Z,99167.06
2022-12-11T18:47:40.846Z,99169.00
2022-12-11T18:50:51.175Z,99167.22
2022-12-11T18:53:55.547Z,99186.19
2022-12-11T18:56:59.246Z,99179.94
2022-12-11T19:00:24.276Z,99190.53
2022-12-11T19:03:28.246Z,99203.25
2022-12-11T19:06:36.317Z,99190.72
2022-12-11T19:09:44.819Z,99195.59
2022-12-11T19:12:56.064Z,99195.59
2022-12-11T19:16:02.165Z,99213.88
2022-12-11T19:19:16.277Z,99219.38
2022-12-11T19:22:20.543Z,99233.66
2022-12-11T19:25:25.069Z,99219.41
2022-12-11T19:28:29.002Z,99224.84
2022-12-11T19:31:33.840Z,99233.53
2022-12-11T19:34:39.605Z,99223.44
2022-12-11T19:37:45.613Z,99239.50
2022-12-11T19:40:49.737Z,99239.78
2022-12-11T19:43:55.487Z,99238.53
2022-12-11T19:46:59.540Z,99241.41
2022-12-11T19:50:04.847Z,99240.31
2022-12-11T19:53:10.329Z,99234.56
2022-12-11T19:56:16.448Z,99249.44
2022-12-11T19:59:21.365Z,99241.59
2022-12-11T20:02:27.521Z,99239.37
2022-12-11T20:05:32.022Z,99248.66
2022-12-11T20:08:45.688Z,99243.72
2022-12-11T20:11:50.459Z,99237.16
2022-12-11T20:14:53.953Z,99246.59
2022-12-11T20:17:59.782Z,99260.97
2022-12-11T20:21:11.960Z,99258.09
2022-12-11T20:24:18.875Z,99271.25
2022-12-11T20:27:23.108Z,99278.13
2022-12-11T20:30:28.206Z,99274.12
2022-12-11T20:33:33.683Z,99270.09
2022-12-11T20:36:38.168Z,99273.28
2022-12-11T20:39:44.340Z,99265.78
2022-12-11T20:42:56.440Z,99263.84
2022-12-11T20:46:02.843Z,99276.34
2022-12-11T20:49:13.262Z,99278.91
2022-12-11T20:52:19.065Z,99284.81
2022-12-11T20:55:23.006Z,99281.81
2022-12-11T20:58:26.761Z,99280.84
2022-12-11T21:01:35.408Z,99279.06
2022-12-11T21:04:46.810Z,99281.97
2022-12-11T21:07:58.555Z,99273.94
2022-12-11T21:11:09.069Z,99272.34
2022-12-11T21:14:14.661Z,99278.41
2022-12-11T21:17:18.100Z,99273.94
2022-12-11T21:20:24.391Z,99279.53
2022-12-11T21:23:28.508Z,99276.16
2022-12-11T21:26:33.920Z,99295.34
2022-12-11T21:29:36.872Z,99287.38
2022-12-11T21:32:41.833Z,99288.97
2022-12-11T21:35:45.659Z,99304.47
2022-12-11T21:38:49.102Z,99313.13
2022-12-11T21:41:51.877Z,99313.31
2022-12-11T21:48:19.325Z,99308.34
2022-12-11T21:51:25.291Z,99324.19
2022-12-11T21:54:28.092Z,99314.28
2022-12-11T21:57:31.144Z,99295.56
2022-12-11T22:00:36.928Z,99294.75
2022-12-11T22:03:39.981Z,99308.03
2022-12-11T22:06:45.959Z,99309.94
2022-12-11T22:09:48.993Z,99307.41
2022-12-11T22:12:51.728Z,99306.28
2022-12-11T22:15:55.321Z,99296.84
2022-12-11T22:18:58.357Z,99300.84
2022-12-11T22:22:01.280Z,99300.34
2022-12-11T22:25:07.168Z,99303.25
2022-12-11T22:28:10.207Z,99306.13
2022-12-11T22:31:15.018Z,99305.97
2022-12-11T22:34:20.532Z,99301.81
2022-12-11T22:37:23.419Z,99305.16
2022-12-11T22:40:27.005Z,99311.72
2022-12-11T22:43:29.640Z,99311.72
2022-12-11T22:46:32.643Z,99315.09
2022-12-11T22:49:36.104Z,99305.63
2022-12-11T22:52:39.709Z,99322.94
2022-12-11T22:55:42.308Z,99318.47
2022-12-11T22:58:47.153Z,99309.31
2022-12-11T23:01:49.897Z,99311.06
2022-12-11T23:04:53.003Z,99309.94
2022-12-11T23:07:55.883Z,99321.50
2022-12-11T23:10:58.936Z,99314.47
2022-12-11T23:14:02.455Z,99319.56
2022-12-11T23:17:05.446Z,99321.03
2022-12-11T23:20:08.827Z,99324.84
2022-12-11T23:23:11.905Z,99321.16
2022-12-11T23:26:15.458Z,99319.75
2022-12-11T23:29:18.479Z,99320.34
2022-12-11T23:32:21.253Z,99319.75
2022-12-11T23:35:24.145Z,99322.94
2022-12-11T23:38:27.001Z,99321.00
2022-12-11T23:41:29.955Z,99332.53
2022-12-11T23:44:32.633Z,99352.53
2022-12-11T23:47:35.695Z,99334.12
2022-12-11T23:50:39.858Z,99331.72
2022-12-11T23:53:43.535Z,99324.69
2022-12-11T23:56:47.570Z,99325.00
2022-12-11T23:59:50.569Z,99330.44
